sensor_id;sensor_type;location;lat;lon;timestamp;P1;durP1;ratioP1;P2;durP2;ratioP2
66256;SDS011;53049;43.446;3.698;2023-05-23T00:02:07;5.82;;;3.92;;
66256;SDS011;53049;43.446;3.698;2023-05-23T00:04:33;7.22;;;3.53;;
66256;SDS011;53049;43.446;3.698;2023-05-23T00:07:01;10.18;;;4.40;;
66256;SDS011;53049;43.446;3.698;2023-05-23T00:09:27;6.85;;;3.95;;
66256;SDS011;53049;43.446;3.698;2023-05-23T00:11:54;28.85;;;12.13;;
66256;SDS011;53049;43.446;3.698;2023-05-23T00:14:19;19.27;;;8.00;;
66256;SDS011;53049;43.446;3.698;2023-05-23T00:16:45;20.17;;;8.50;;
66256;SDS011;53049;43.446;3.698;2023-05-23T00:19:13;20.95;;;7.50;;
66256;SDS011;53049;43.446;3.698;2023-05-23T00:21:45;23.08;;;7.75;;
66256;SDS011;53049;43.446;3.698;2023-05-23T00:24:14;20.48;;;6.45;;
66256;SDS011;53049;43.446;3.698;2023-05-23T00:26:43;18.98;;;6.15;;
66256;SDS011;53049;43.446;3.698;2023-05-23T00:29:09;7.13;;;3.45;;
66256;SDS011;53049;43.446;3.698;2023-05-23T00:31:40;4.70;;;2.90;;
66256;SDS011;53049;43.446;3.698;2023-05-23T00:34:11;5.70;;;3.47;;
66256;SDS011;53049;43.446;3.698;2023-05-23T00:36:41;4.63;;;2.78;;
66256;SDS011;53049;43.446;3.698;2023-05-23T00:39:07;5.13;;;3.40;;
66256;SDS011;53049;43.446;3.698;2023-05-23T00:41:33;6.03;;;2.80;;
66256;SDS011;53049;43.446;3.698;2023-05-23T00:44:00;4.93;;;3.00;;
66256;SDS011;53049;43.446;3.698;2023-05-23T00:46:26;4.03;;;2.40;;
66256;SDS011;53049;43.446;3.698;2023-05-23T00:48:53;3.80;;;2.38;;
66256;SDS011;53049;43.446;3.698;2023-05-23T00:51:19;4.15;;;2.60;;
66256;SDS011;53049;43.446;3.698;2023-05-23T00:53:46;5.85;;;3.13;;
66256;SDS011;53049;43.446;3.698;2023-05-23T00:56:12;5.20;;;2.95;;
66256;SDS011;53049;43.446;3.698;2023-05-23T00:58:38;3.22;;;2.40;;
66256;SDS011;53049;43.446;3.698;2023-05-23T01:01:04;8.75;;;2.75;;
66256;SDS011;53049;43.446;3.698;2023-05-23T01:03:31;3.75;;;2.63;;
66256;SDS011;53049;43.446;3.698;2023-05-23T01:05:57;4.85;;;2.83;;
66256;SDS011;53049;43.446;3.698;2023-05-23T01:08:23;3.90;;;2.60;;
66256;SDS011;53049;43.446;3.698;2023-05-23T01:10:48;5.43;;;2.90;;
66256;SDS011;53049;43.446;3.698;2023-05-23T01:13:39;5.63;;;3.20;;
66256;SDS011;53049;43.446;3.698;2023-05-23T01:16:22;4.15;;;2.85;;
66256;SDS011;53049;43.446;3.698;2023-05-23T01:19:01;5.45;;;3.17;;
66256;SDS011;53049;43.446;3.698;2023-05-23T01:21:30;5.88;;;3.20;;
66256;SDS011;53049;43.446;3.698;2023-05-23T01:29:23;3.73;;;2.80;;
66256;SDS011;53049;43.446;3.698;2023-05-23T01:31:53;6.13;;;3.08;;
66256;SDS011;53049;43.446;3.698;2023-05-23T01:34:21;5.30;;;3.17;;
66256;SDS011;53049;43.446;3.698;2023-05-23T01:36:48;5.25;;;3.20;;
66256;SDS011;53049;43.446;3.698;2023-05-23T01:39:17;4.88;;;3.38;;
66256;SDS011;53049;43.446;3.698;2023-05-23T01:41:43;4.45;;;3.00;;
66256;SDS011;53049;43.446;3.698;2023-05-23T01:44:09;4.57;;;3.40;;
66256;SDS011;53049;43.446;3.698;2023-05-23T01:46:35;6.22;;;3.42;;
66256;SDS011;53049;43.446;3.698;2023-05-23T01:49:03;6.80;;;3.58;;
66256;SDS011;53049;43.446;3.698;2023-05-23T01:51:31;7.80;;;3.60;;
66256;SDS011;53049;43.446;3.698;2023-05-23T01:53:58;5.82;;;3.08;;
66256;SDS011;53049;43.446;3.698;2023-05-23T01:56:24;8.07;;;3.42;;
66256;SDS011;53049;43.446;3.698;2023-05-23T01:58:54;6.65;;;3.35;;
66256;SDS011;53049;43.446;3.698;2023-05-23T02:01:20;5.00;;;3.50;;
66256;SDS011;53049;43.446;3.698;2023-05-23T02:03:46;5.95;;;3.38;;
66256;SDS011;53049;43.446;3.698;2023-05-23T02:06:11;5.40;;;3.33;;
66256;SDS011;53049;43.446;3.698;2023-05-23T02:08:37;4.85;;;3.20;;
66256;SDS011;53049;43.446;3.698;2023-05-23T02:11:03;4.78;;;3.20;;
66256;SDS011;53049;43.446;3.698;2023-05-23T02:13:28;5.38;;;3.22;;
66256;SDS011;53049;43.446;3.698;2023-05-23T02:15:54;4.40;;;3.10;;
66256;SDS011;53049;43.446;3.698;2023-05-23T02:18:20;4.65;;;3.13;;
66256;SDS011;53049;43.446;3.698;2023-05-23T02:20:46;5.25;;;3.40;;
66256;SDS011;53049;43.446;3.698;2023-05-23T02:23:11;6.00;;;3.55;;
66256;SDS011;53049;43.446;3.698;2023-05-23T02:25:37;6.90;;;3.42;;
66256;SDS011;53049;43.446;3.698;2023-05-23T02:28:03;5.68;;;3.55;;
66256;SDS011;53049;43.446;3.698;2023-05-23T02:30:28;6.45;;;3.63;;
66256;SDS011;53049;43.446;3.698;2023-05-23T02:32:54;4.68;;;3.35;;
66256;SDS011;53049;43.446;3.698;2023-05-23T02:35:21;4.78;;;3.17;;
66256;SDS011;53049;43.446;3.698;2023-05-23T02:37:47;5.72;;;3.10;;
66256;SDS011;53049;43.446;3.698;2023-05-23T02:40:12;5.20;;;2.80;;
66256;SDS011;53049;43.446;3.698;2023-05-23T02:42:38;5.53;;;3.40;;
66256;SDS011;53049;43.446;3.698;2023-05-23T02:45:04;4.93;;;2.70;;
66256;SDS011;53049;43.446;3.698;2023-05-23T02:47:30;4.07;;;2.97;;
66256;SDS011;53049;43.446;3.698;2023-05-23T02:49:55;6.22;;;3.35;;
66256;SDS011;53049;43.446;3.698;2023-05-23T02:52:21;5.10;;;3.08;;
66256;SDS011;53049;43.446;3.698;2023-05-23T02:54:46;5.00;;;3.20;;
66256;SDS011;53049;43.446;3.698;2023-05-23T02:57:12;4.38;;;2.88;;
66256;SDS011;53049;43.446;3.698;2023-05-23T02:59:38;5.00;;;3.17;;
66256;SDS011;53049;43.446;3.698;2023-05-23T03:02:03;5.90;;;3.10;;
66256;SDS011;53049;43.446;3.698;2023-05-23T03:04:29;4.90;;;3.42;;
66256;SDS011;53049;43.446;3.698;2023-05-23T03:06:55;5.95;;;3.17;;
66256;SDS011;53049;43.446;3.698;2023-05-23T03:09:23;5.35;;;3.30;;
66256;SDS011;53049;43.446;3.698;2023-05-23T03:11:50;5.32;;;3.33;;
66256;SDS011;53049;43.446;3.698;2023-05-23T03:14:16;8.85;;;3.00;;
66256;SDS011;53049;43.446;3.698;2023-05-23T03:16:42;4.57;;;3.25;;
66256;SDS011;53049;43.446;3.698;2023-05-23T03:19:08;4.70;;;3.20;;
66256;SDS011;53049;43.446;3.698;2023-05-23T03:21:33;5.38;;;2.85;;
66256;SDS011;53049;43.446;3.698;2023-05-23T03:23:59;4.45;;;3.15;;
66256;SDS011;53049;43.446;3.698;2023-05-23T03:26:25;4.57;;;3.28;;
66256;SDS011;53049;43.446;3.698;2023-05-23T03:28:51;4.38;;;2.97;;
66256;SDS011;53049;43.446;3.698;2023-05-23T03:31:16;5.28;;;3.25;;
66256;SDS011;53049;43.446;3.698;2023-05-23T03:33:42;5.30;;;3.80;;
66256;SDS011;53049;43.446;3.698;2023-05-23T03:36:08;4.97;;;3.45;;
66256;SDS011;53049;43.446;3.698;2023-05-23T03:38:33;4.60;;;3.08;;
66256;SDS011;53049;43.446;3.698;2023-05-23T03:40:59;5.25;;;3.15;;
66256;SDS011;53049;43.446;3.698;2023-05-23T03:43:24;5.15;;;3.25;;
66256;SDS011;53049;43.446;3.698;2023-05-23T03:45:50;4.03;;;2.80;;
66256;SDS011;53049;43.446;3.698;2023-05-23T03:48:16;4.55;;;3.20;;
66256;SDS011;53049;43.446;3.698;2023-05-23T03:50:41;4.85;;;3.42;;
66256;SDS011;53049;43.446;3.698;2023-05-23T03:53:08;5.63;;;3.70;;
66256;SDS011;53049;43.446;3.698;2023-05-23T03:55:33;4.82;;;3.42;;
66256;SDS011;53049;43.446;3.698;2023-05-23T03:57:59;6.15;;;3.28;;
66256;SDS011;53049;43.446;3.698;2023-05-23T04:00:25;5.82;;;3.95;;
66256;SDS011;53049;43.446;3.698;2023-05-23T04:02:51;7.68;;;4.00;;
66256;SDS011;53049;43.446;3.698;2023-05-23T04:05:16;5.75;;;3.58;;
66256;SDS011;53049;43.446;3.698;2023-05-23T04:07:43;6.25;;;3.83;;
66256;SDS011;53049;43.446;3.698;2023-05-23T04:10:09;6.07;;;3.75;;
66256;SDS011;53049;43.446;3.698;2023-05-23T04:12:36;7.72;;;3.67;;
66256;SDS011;53049;43.446;3.698;2023-05-23T04:15:05;4.82;;;3.58;;
66256;SDS011;53049;43.446;3.698;2023-05-23T04:17:32;7.00;;;3.50;;
66256;SDS011;53049;43.446;3.698;2023-05-23T04:19:57;6.10;;;3.38;;
66256;SDS011;53049;43.446;3.698;2023-05-23T04:22:23;5.80;;;3.90;;
66256;SDS011;53049;43.446;3.698;2023-05-23T04:24:49;5.90;;;3.88;;
66256;SDS011;53049;43.446;3.698;2023-05-23T04:27:14;6.63;;;3.45;;
66256;SDS011;53049;43.446;3.698;2023-05-23T04:29:40;6.25;;;3.78;;
66256;SDS011;53049;43.446;3.698;2023-05-23T04:32:06;5.90;;;3.67;;
66256;SDS011;53049;43.446;3.698;2023-05-23T04:34:32;6.38;;;3.75;;
66256;SDS011;53049;43.446;3.698;2023-05-23T04:37:01;7.50;;;4.15;;
66256;SDS011;53049;43.446;3.698;2023-05-23T04:39:30;6.53;;;3.72;;
66256;SDS011;53049;43.446;3.698;2023-05-23T04:41:55;7.50;;;4.68;;
66256;SDS011;53049;43.446;3.698;2023-05-23T04:44:22;6.20;;;3.45;;
66256;SDS011;53049;43.446;3.698;2023-05-23T04:46:48;5.13;;;3.40;;
66256;SDS011;53049;43.446;3.698;2023-05-23T04:49:14;5.68;;;3.60;;
66256;SDS011;53049;43.446;3.698;2023-05-23T04:51:40;6.50;;;3.88;;
66256;SDS011;53049;43.446;3.698;2023-05-23T04:54:07;5.30;;;3.67;;
66256;SDS011;53049;43.446;3.698;2023-05-23T04:56:33;4.80;;;3.30;;
66256;SDS011;53049;43.446;3.698;2023-05-23T04:58:58;4.45;;;3.22;;
66256;SDS011;53049;43.446;3.698;2023-05-23T05:01:24;5.47;;;3.40;;
66256;SDS011;53049;43.446;3.698;2023-05-23T05:03:50;7.10;;;3.88;;
66256;SDS011;53049;43.446;3.698;2023-05-23T05:06:16;5.50;;;3.80;;
66256;SDS011;53049;43.446;3.698;2023-05-23T05:08:42;5.85;;;3.50;;
66256;SDS011;53049;43.446;3.698;2023-05-23T05:11:08;5.70;;;3.70;;
66256;SDS011;53049;43.446;3.698;2023-05-23T05:13:34;6.65;;;3.63;;
66256;SDS011;53049;43.446;3.698;2023-05-23T05:16:00;5.07;;;3.60;;
66256;SDS011;53049;43.446;3.698;2023-05-23T05:18:26;5.38;;;3.47;;
66256;SDS011;53049;43.446;3.698;2023-05-23T05:20:52;5.32;;;3.33;;
66256;SDS011;53049;43.446;3.698;2023-05-23T05:23:18;6.72;;;3.90;;
66256;SDS011;53049;43.446;3.698;2023-05-23T05:25:45;6.55;;;3.67;;
66256;SDS011;53049;43.446;3.698;2023-05-23T05:28:10;7.20;;;3.90;;
66256;SDS011;53049;43.446;3.698;2023-05-23T05:30:36;7.97;;;4.18;;
66256;SDS011;53049;43.446;3.698;2023-05-23T05:33:03;5.05;;;3.58;;
66256;SDS011;53049;43.446;3.698;2023-05-23T05:35:33;6.55;;;4.00;;
66256;SDS011;53049;43.446;3.698;2023-05-23T05:37:59;6.40;;;4.45;;
66256;SDS011;53049;43.446;3.698;2023-05-23T05:40:26;5.78;;;3.95;;
66256;SDS011;53049;43.446;3.698;2023-05-23T05:42:52;6.85;;;3.67;;
66256;SDS011;53049;43.446;3.698;2023-05-23T05:45:17;5.80;;;3.85;;
66256;SDS011;53049;43.446;3.698;2023-05-23T05:47:43;6.22;;;4.30;;
66256;SDS011;53049;43.446;3.698;2023-05-23T05:50:10;7.10;;;3.72;;
66256;SDS011;53049;43.446;3.698;2023-05-23T05:52:36;6.93;;;4.40;;
66256;SDS011;53049;43.446;3.698;2023-05-23T05:55:07;5.97;;;3.92;;
66256;SDS011;53049;43.446;3.698;2023-05-23T05:57:37;12.57;;;4.35;;
66256;SDS011;53049;43.446;3.698;2023-05-23T06:00:05;5.53;;;3.92;;
66256;SDS011;53049;43.446;3.698;2023-05-23T06:02:43;8.40;;;4.43;;
66256;SDS011;53049;43.446;3.698;2023-05-23T06:05:12;7.00;;;3.85;;
66256;SDS011;53049;43.446;3.698;2023-05-23T06:07:40;9.70;;;4.88;;
66256;SDS011;53049;43.446;3.698;2023-05-23T06:10:07;7.03;;;3.80;;
66256;SDS011;53049;43.446;3.698;2023-05-23T06:12:33;6.50;;;3.78;;
66256;SDS011;53049;43.446;3.698;2023-05-23T06:14:59;4.93;;;3.40;;
66256;SDS011;53049;43.446;3.698;2023-05-23T06:17:26;6.70;;;3.65;;
66256;SDS011;53049;43.446;3.698;2023-05-23T06:19:52;8.05;;;4.35;;
66256;SDS011;53049;43.446;3.698;2023-05-23T06:22:18;5.80;;;4.07;;
66256;SDS011;53049;43.446;3.698;2023-05-23T06:24:43;7.85;;;4.50;;
66256;SDS011;53049;43.446;3.698;2023-05-23T06:27:10;7.35;;;3.80;;
66256;SDS011;53049;43.446;3.698;2023-05-23T06:29:36;6.43;;;3.88;;
66256;SDS011;53049;43.446;3.698;2023-05-23T06:32:02;6.00;;;4.20;;
66256;SDS011;53049;43.446;3.698;2023-05-23T06:34:28;5.80;;;3.88;;
66256;SDS011;53049;43.446;3.698;2023-05-23T06:36:54;5.80;;;3.83;;
66256;SDS011;53049;43.446;3.698;2023-05-23T06:39:20;5.60;;;3.83;;
66256;SDS011;53049;43.446;3.698;2023-05-23T06:41:45;5.70;;;3.70;;
66256;SDS011;53049;43.446;3.698;2023-05-23T06:44:11;5.97;;;3.70;;
66256;SDS011;53049;43.446;3.698;2023-05-23T06:46:37;5.18;;;3.70;;
66256;SDS011;53049;43.446;3.698;2023-05-23T06:49:03;6.55;;;3.83;;
66256;SDS011;53049;43.446;3.698;2023-05-23T06:51:29;5.57;;;3.92;;
66256;SDS011;53049;43.446;3.698;2023-05-23T06:53:55;5.32;;;4.00;;
66256;SDS011;53049;43.446;3.698;2023-05-23T06:56:21;6.32;;;4.10;;
66256;SDS011;53049;43.446;3.698;2023-05-23T06:58:47;7.18;;;3.85;;
66256;SDS011;53049;43.446;3.698;2023-05-23T07:01:13;6.20;;;3.50;;
66256;SDS011;53049;43.446;3.698;2023-05-23T07:03:39;5.45;;;3.53;;
66256;SDS011;53049;43.446;3.698;2023-05-23T07:06:07;6.35;;;3.38;;
66256;SDS011;53049;43.446;3.698;2023-05-23T07:08:32;5.65;;;3.47;;
66256;SDS011;53049;43.446;3.698;2023-05-23T07:10:58;8.25;;;4.05;;
66256;SDS011;53049;43.446;3.698;2023-05-23T07:13:24;8.93;;;4.00;;
66256;SDS011;53049;43.446;3.698;2023-05-23T07:15:49;7.15;;;3.65;;
66256;SDS011;53049;43.446;3.698;2023-05-23T07:18:15;6.00;;;3.53;;
66256;SDS011;53049;43.446;3.698;2023-05-23T07:20:41;6.30;;;3.63;;
66256;SDS011;53049;43.446;3.698;2023-05-23T07:23:06;6.68;;;3.88;;
66256;SDS011;53049;43.446;3.698;2023-05-23T07:25:32;5.90;;;4.28;;
66256;SDS011;53049;43.446;3.698;2023-05-23T07:27:58;5.45;;;3.75;;
66256;SDS011;53049;43.446;3.698;2023-05-23T07:30:24;6.53;;;4.05;;
66256;SDS011;53049;43.446;3.698;2023-05-23T07:32:49;5.43;;;3.70;;
66256;SDS011;53049;43.446;3.698;2023-05-23T07:35:16;5.63;;;3.83;;
66256;SDS011;53049;43.446;3.698;2023-05-23T07:37:42;6.35;;;4.30;;
66256;SDS011;53049;43.446;3.698;2023-05-23T07:40:08;6.63;;;4.53;;
66256;SDS011;53049;43.446;3.698;2023-05-23T07:42:34;7.75;;;3.97;;
66256;SDS011;53049;43.446;3.698;2023-05-23T07:45:00;6.00;;;4.20;;
66256;SDS011;53049;43.446;3.698;2023-05-23T07:47:26;5.63;;;4.15;;
66256;SDS011;53049;43.446;3.698;2023-05-23T07:49:52;7.25;;;4.50;;
66256;SDS011;53049;43.446;3.698;2023-05-23T07:52:18;7.45;;;4.78;;
66256;SDS011;53049;43.446;3.698;2023-05-23T07:54:43;7.22;;;5.22;;
66256;SDS011;53049;43.446;3.698;2023-05-23T07:57:09;9.10;;;4.80;;
66256;SDS011;53049;43.446;3.698;2023-05-23T07:59:35;7.93;;;5.05;;
66256;SDS011;53049;43.446;3.698;2023-05-23T08:02:02;8.60;;;5.05;;
66256;SDS011;53049;43.446;3.698;2023-05-23T08:04:28;5.70;;;5.03;;
66256;SDS011;53049;43.446;3.698;2023-05-23T08:06:54;8.32;;;5.25;;
66256;SDS011;53049;43.446;3.698;2023-05-23T08:09:20;7.63;;;5.43;;
66256;SDS011;53049;43.446;3.698;2023-05-23T08:11:47;7.90;;;5.28;;
66256;SDS011;53049;43.446;3.698;2023-05-23T08:14:12;7.15;;;5.30;;
66256;SDS011;53049;43.446;3.698;2023-05-23T08:16:38;7.18;;;5.40;;
66256;SDS011;53049;43.446;3.698;2023-05-23T08:19:04;6.82;;;5.65;;
66256;SDS011;53049;43.446;3.698;2023-05-23T08:21:30;9.18;;;5.82;;
66256;SDS011;53049;43.446;3.698;2023-05-23T08:23:56;7.22;;;5.63;;
66256;SDS011;53049;43.446;3.698;2023-05-23T08:26:22;7.80;;;5.78;;
66256;SDS011;53049;43.446;3.698;2023-05-23T08:28:47;8.02;;;5.68;;
66256;SDS011;53049;43.446;3.698;2023-05-23T08:31:13;7.75;;;6.22;;
66256;SDS011;53049;43.446;3.698;2023-05-23T08:33:39;9.13;;;6.82;;
66256;SDS011;53049;43.446;3.698;2023-05-23T08:36:05;9.27;;;6.57;;
66256;SDS011;53049;43.446;3.698;2023-05-23T08:38:30;9.25;;;6.78;;
66256;SDS011;53049;43.446;3.698;2023-05-23T08:40:56;7.93;;;7.13;;
66256;SDS011;53049;43.446;3.698;2023-05-23T08:43:25;9.70;;;6.85;;
66256;SDS011;53049;43.446;3.698;2023-05-23T08:45:51;8.90;;;6.88;;
66256;SDS011;53049;43.446;3.698;2023-05-23T08:48:19;8.77;;;6.97;;
66256;SDS011;53049;43.446;3.698;2023-05-23T08:50:46;8.35;;;7.13;;
66256;SDS011;53049;43.446;3.698;2023-05-23T08:53:16;8.02;;;6.80;;
66256;SDS011;53049;43.446;3.698;2023-05-23T08:55:45;8.20;;;6.95;;
66256;SDS011;53049;43.446;3.698;2023-05-23T08:58:12;7.50;;;6.45;;
66256;SDS011;53049;43.446;3.698;2023-05-23T09:00:39;9.18;;;7.43;;
66256;SDS011;53049;43.446;3.698;2023-05-23T09:03:07;7.57;;;6.35;;
66256;SDS011;53049;43.446;3.698;2023-05-23T09:05:33;9.35;;;7.40;;
66256;SDS011;53049;43.446;3.698;2023-05-23T09:07:59;10.20;;;7.38;;
66256;SDS011;53049;43.446;3.698;2023-05-23T09:10:24;9.77;;;6.82;;
66256;SDS011;53049;43.446;3.698;2023-05-23T09:12:53;10.45;;;7.78;;
66256;SDS011;53049;43.446;3.698;2023-05-23T09:15:19;10.60;;;7.03;;
66256;SDS011;53049;43.446;3.698;2023-05-23T09:17:47;9.15;;;7.00;;
66256;SDS011;53049;43.446;3.698;2023-05-23T09:20:14;8.60;;;7.20;;
66256;SDS011;53049;43.446;3.698;2023-05-23T09:22:44;9.70;;;6.72;;
66256;SDS011;53049;43.446;3.698;2023-05-23T09:25:14;9.27;;;7.05;;
66256;SDS011;53049;43.446;3.698;2023-05-23T09:27:40;8.18;;;6.78;;
66256;SDS011;53049;43.446;3.698;2023-05-23T09:30:07;9.23;;;7.03;;
66256;SDS011;53049;43.446;3.698;2023-05-23T09:32:34;7.80;;;6.85;;
66256;SDS011;53049;43.446;3.698;2023-05-23T09:35:03;8.98;;;6.80;;
66256;SDS011;53049;43.446;3.698;2023-05-23T09:37:35;8.70;;;7.22;;
66256;SDS011;53049;43.446;3.698;2023-05-23T09:40:13;9.88;;;7.70;;
66256;SDS011;53049;43.446;3.698;2023-05-23T09:45:06;9.65;;;7.18;;
66256;SDS011;53049;43.446;3.698;2023-05-23T09:47:32;8.85;;;6.82;;
66256;SDS011;53049;43.446;3.698;2023-05-23T09:49:58;8.30;;;7.30;;
66256;SDS011;53049;43.446;3.698;2023-05-23T09:52:23;7.82;;;6.70;;
66256;SDS011;53049;43.446;3.698;2023-05-23T09:54:50;7.53;;;6.55;;
66256;SDS011;53049;43.446;3.698;2023-05-23T09:57:15;8.48;;;6.72;;
66256;SDS011;53049;43.446;3.698;2023-05-23T09:59:44;8.93;;;7.03;;
66256;SDS011;53049;43.446;3.698;2023-05-23T10:02:32;7.40;;;6.60;;
66256;SDS011;53049;43.446;3.698;2023-05-23T10:05:35;9.65;;;7.18;;
66256;SDS011;53049;43.446;3.698;2023-05-23T10:08:07;9.93;;;7.70;;
66256;SDS011;53049;43.446;3.698;2023-05-23T10:10:54;9.50;;;7.50;;
66256;SDS011;53049;43.446;3.698;2023-05-23T10:13:21;9.85;;;7.80;;
66256;SDS011;53049;43.446;3.698;2023-05-23T10:15:50;11.50;;;7.75;;
66256;SDS011;53049;43.446;3.698;2023-05-23T10:18:33;9.98;;;7.93;;
66256;SDS011;53049;43.446;3.698;2023-05-23T10:21:11;11.45;;;8.07;;
66256;SDS011;53049;43.446;3.698;2023-05-23T10:23:39;10.10;;;7.90;;
66256;SDS011;53049;43.446;3.698;2023-05-23T10:26:08;9.27;;;8.18;;
66256;SDS011;53049;43.446;3.698;2023-05-23T10:28:35;11.38;;;8.32;;
66256;SDS011;53049;43.446;3.698;2023-05-23T10:31:01;12.70;;;9.35;;
66256;SDS011;53049;43.446;3.698;2023-05-23T10:33:27;12.40;;;9.57;;
66256;SDS011;53049;43.446;3.698;2023-05-23T10:36:13;11.65;;;9.63;;
66256;SDS011;53049;43.446;3.698;2023-05-23T10:38:49;12.20;;;9.57;;
66256;SDS011;53049;43.446;3.698;2023-05-23T10:41:24;13.18;;;9.50;;
66256;SDS011;53049;43.446;3.698;2023-05-23T10:44:15;12.40;;;9.25;;
66256;SDS011;53049;43.446;3.698;2023-05-23T10:46:54;10.88;;;9.32;;
66256;SDS011;53049;43.446;3.698;2023-05-23T10:52:06;10.85;;;9.75;;
66256;SDS011;53049;43.446;3.698;2023-05-23T10:54:41;13.13;;;9.43;;
66256;SDS011;53049;43.446;3.698;2023-05-23T10:57:08;12.45;;;9.93;;
66256;SDS011;53049;43.446;3.698;2023-05-23T10:59:37;12.07;;;10.13;;
66256;SDS011;53049;43.446;3.698;2023-05-23T11:02:07;11.38;;;9.70;;
66256;SDS011;53049;43.446;3.698;2023-05-23T11:04:38;15.10;;;10.40;;
66256;SDS011;53049;43.446;3.698;2023-05-23T11:07:04;14.30;;;10.38;;
66256;SDS011;53049;43.446;3.698;2023-05-23T11:09:30;12.05;;;10.43;;
66256;SDS011;53049;43.446;3.698;2023-05-23T11:11:59;13.85;;;10.65;;
66256;SDS011;53049;43.446;3.698;2023-05-23T11:19:39;19.13;;;11.50;;
66256;SDS011;53049;43.446;3.698;2023-05-23T11:22:20;14.77;;;10.55;;
66256;SDS011;53049;43.446;3.698;2023-05-23T11:27:39;11.40;;;10.05;;
66256;SDS011;53049;43.446;3.698;2023-05-23T11:30:09;14.32;;;11.45;;
66256;SDS011;53049;43.446;3.698;2023-05-23T11:32:39;13.07;;;10.90;;
66256;SDS011;53049;43.446;3.698;2023-05-23T11:35:05;16.15;;;11.23;;
66256;SDS011;53049;43.446;3.698;2023-05-23T11:37:32;13.60;;;10.93;;
66256;SDS011;53049;43.446;3.698;2023-05-23T11:39:58;18.27;;;11.68;;
66256;SDS011;53049;43.446;3.698;2023-05-23T11:42:44;12.88;;;10.85;;
66256;SDS011;53049;43.446;3.698;2023-05-23T11:45:10;15.15;;;11.65;;
66256;SDS011;53049;43.446;3.698;2023-05-23T11:47:40;15.32;;;11.82;;
66256;SDS011;53049;43.446;3.698;2023-05-23T11:50:05;14.23;;;11.63;;
66256;SDS011;53049;43.446;3.698;2023-05-23T11:52:32;14.13;;;12.25;;
66256;SDS011;53049;43.446;3.698;2023-05-23T11:54:59;14.23;;;11.98;;
66256;SDS011;53049;43.446;3.698;2023-05-23T11:57:25;14.65;;;11.65;;
66256;SDS011;53049;43.446;3.698;2023-05-23T11:59:51;14.52;;;11.55;;
66256;SDS011;53049;43.446;3.698;2023-05-23T12:02:18;17.60;;;12.35;;
66256;SDS011;53049;43.446;3.698;2023-05-23T12:04:45;13.43;;;11.88;;
66256;SDS011;53049;43.446;3.698;2023-05-23T12:07:12;14.68;;;11.95;;
66256;SDS011;53049;43.446;3.698;2023-05-23T12:09:41;18.33;;;12.15;;
66256;SDS011;53049;43.446;3.698;2023-05-23T12:12:08;13.95;;;11.98;;
66256;SDS011;53049;43.446;3.698;2023-05-23T12:14:34;13.50;;;12.10;;
66256;SDS011;53049;43.446;3.698;2023-05-23T12:16:59;19.90;;;11.73;;
66256;SDS011;53049;43.446;3.698;2023-05-23T12:19:25;14.95;;;12.05;;
66256;SDS011;53049;43.446;3.698;2023-05-23T12:21:51;13.20;;;11.75;;
66256;SDS011;53049;43.446;3.698;2023-05-23T12:24:20;14.15;;;11.30;;
66256;SDS011;53049;43.446;3.698;2023-05-23T12:26:51;13.80;;;11.18;;
66256;SDS011;53049;43.446;3.698;2023-05-23T12:29:19;12.93;;;11.63;;
66256;SDS011;53049;43.446;3.698;2023-05-23T12:31:53;14.20;;;10.90;;
66256;SDS011;53049;43.446;3.698;2023-05-23T12:34:19;14.05;;;11.77;;
66256;SDS011;53049;43.446;3.698;2023-05-23T12:36:45;14.55;;;11.32;;
66256;SDS011;53049;43.446;3.698;2023-05-23T12:39:13;13.18;;;11.18;;
66256;SDS011;53049;43.446;3.698;2023-05-23T12:41:43;14.75;;;11.80;;
66256;SDS011;53049;43.446;3.698;2023-05-23T12:44:14;12.68;;;11.38;;
66256;SDS011;53049;43.446;3.698;2023-05-23T12:46:40;14.02;;;11.23;;
66256;SDS011;53049;43.446;3.698;2023-05-23T12:49:06;14.13;;;11.88;;
66256;SDS011;53049;43.446;3.698;2023-05-23T12:51:32;13.85;;;11.43;;
66256;SDS011;53049;43.446;3.698;2023-05-23T12:53:58;14.65;;;10.82;;
66256;SDS011;53049;43.446;3.698;2023-05-23T12:56:23;13.57;;;11.13;;
66256;SDS011;53049;43.446;3.698;2023-05-23T12:58:50;12.13;;;10.82;;
66256;SDS011;53049;43.446;3.698;2023-05-23T13:01:17;16.05;;;11.63;;
66256;SDS011;53049;43.446;3.698;2023-05-23T13:03:44;15.52;;;11.98;;
66256;SDS011;53049;43.446;3.698;2023-05-23T13:06:11;15.50;;;11.55;;
66256;SDS011;53049;43.446;3.698;2023-05-23T13:08:36;13.07;;;11.55;;
66256;SDS011;53049;43.446;3.698;2023-05-23T13:11:02;12.77;;;10.88;;
66256;SDS011;53049;43.446;3.698;2023-05-23T13:13:29;13.70;;;11.73;;
66256;SDS011;53049;43.446;3.698;2023-05-23T13:15:56;14.23;;;11.30;;
66256;SDS011;53049;43.446;3.698;2023-05-23T13:18:22;12.50;;;11.07;;
66256;SDS011;53049;43.446;3.698;2023-05-23T13:20:47;14.73;;;10.05;;
66256;SDS011;53049;43.446;3.698;2023-05-23T13:23:13;13.77;;;10.63;;
66256;SDS011;53049;43.446;3.698;2023-05-23T13:25:39;12.60;;;10.93;;
66256;SDS011;53049;43.446;3.698;2023-05-23T13:28:04;12.65;;;9.75;;
66256;SDS011;53049;43.446;3.698;2023-05-23T13:30:30;13.07;;;11.02;;
66256;SDS011;53049;43.446;3.698;2023-05-23T13:32:56;13.98;;;11.68;;
66256;SDS011;53049;43.446;3.698;2023-05-23T13:35:22;13.13;;;11.23;;
66256;SDS011;53049;43.446;3.698;2023-05-23T13:37:48;12.65;;;11.27;;
66256;SDS011;53049;43.446;3.698;2023-05-23T13:40:17;13.35;;;10.95;;
66256;SDS011;53049;43.446;3.698;2023-05-23T13:42:46;14.05;;;11.43;;
66256;SDS011;53049;43.446;3.698;2023-05-23T13:45:13;14.82;;;11.10;;
66256;SDS011;53049;43.446;3.698;2023-05-23T13:47:39;14.88;;;10.32;;
66256;SDS011;53049;43.446;3.698;2023-05-23T13:50:05;11.95;;;10.52;;
66256;SDS011;53049;43.446;3.698;2023-05-23T13:52:32;11.15;;;9.82;;
66256;SDS011;53049;43.446;3.698;2023-05-23T13:54:58;10.88;;;9.57;;
66256;SDS011;53049;43.446;3.698;2023-05-23T13:57:25;11.43;;;10.23;;
66256;SDS011;53049;43.446;3.698;2023-05-23T13:59:51;11.48;;;10.27;;
66256;SDS011;53049;43.446;3.698;2023-05-23T14:02:17;12.60;;;10.23;;
66256;SDS011;53049;43.446;3.698;2023-05-23T14:04:43;11.82;;;10.40;;
66256;SDS011;53049;43.446;3.698;2023-05-23T14:07:08;12.32;;;10.75;;
66256;SDS011;53049;43.446;3.698;2023-05-23T14:09:34;15.00;;;11.60;;
66256;SDS011;53049;43.446;3.698;2023-05-23T14:12:00;9.20;;;8.10;;
66256;SDS011;53049;43.446;3.698;2023-05-23T14:14:26;7.63;;;5.80;;
66256;SDS011;53049;43.446;3.698;2023-05-23T14:16:52;6.75;;;4.38;;
66256;SDS011;53049;43.446;3.698;2023-05-23T14:19:18;9.27;;;5.13;;
66256;SDS011;53049;43.446;3.698;2023-05-23T14:21:45;7.82;;;5.03;;
66256;SDS011;53049;43.446;3.698;2023-05-23T14:24:10;12.57;;;5.10;;
66256;SDS011;53049;43.446;3.698;2023-05-23T14:26:36;7.75;;;4.80;;
66256;SDS011;53049;43.446;3.698;2023-05-23T14:29:02;12.73;;;5.00;;
66256;SDS011;53049;43.446;3.698;2023-05-23T14:31:28;9.90;;;4.75;;
66256;SDS011;53049;43.446;3.698;2023-05-23T14:33:53;6.60;;;4.00;;
66256;SDS011;53049;43.446;3.698;2023-05-23T14:36:19;6.43;;;3.65;;
66256;SDS011;53049;43.446;3.698;2023-05-23T14:38:45;8.05;;;4.07;;
66256;SDS011;53049;43.446;3.698;2023-05-23T14:41:13;5.38;;;3.88;;
66256;SDS011;53049;43.446;3.698;2023-05-23T14:43:39;6.65;;;4.00;;
66256;SDS011;53049;43.446;3.698;2023-05-23T14:46:04;6.38;;;4.20;;
66256;SDS011;53049;43.446;3.698;2023-05-23T14:48:33;6.18;;;4.30;;
66256;SDS011;53049;43.446;3.698;2023-05-23T14:50:59;6.25;;;4.10;;
66256;SDS011;53049;43.446;3.698;2023-05-23T14:53:26;8.63;;;3.88;;
66256;SDS011;53049;43.446;3.698;2023-05-23T14:55:52;6.32;;;4.45;;
66256;SDS011;53049;43.446;3.698;2023-05-23T14:58:18;6.65;;;4.22;;
66256;SDS011;53049;43.446;3.698;2023-05-23T15:00:45;6.78;;;4.43;;